Sweden, Pennsylvania
Current Conditions -  °F | °C
As of 8:56 AM on Sunday 23 Nov 2014 (Local Time) from KELZ Reporting Station
Overcast Overcast  
Wind Chill: 40°   Ceiling: 3400
Heat Index: 45°   Visibility: 10mi
Dew Point: 31°   Wind: 10mph
Humidity: 58%   Direction: 210°SSW
Pressure: 30.09"   Gusts: NA
Location:  41.7605°N, 77.9728°W
Report Text: KELZ 231356Z AUTO 21009KT 10SM OVC034 07/M01 A3009 RMK AO2 SLP201 T00721006
Loading
Personal Weather Stations






























Interactive Weather Map New forecast layout! Learn more

10-Day Weather Forecast

Advertisements
Track Severe Weather on mobile